Dunellen, New Jersey
Current Conditions -  °F | °C
As of 5:53 PM on Wednesday 17 Dec 2014 (Local Time) from KSMQ Reporting Station
Scattered Clouds Scattered Clouds  
Wind Chill: 41°   Ceiling: Unl
Heat Index: 46°   Visibility: 10mi
Dew Point: 31°   Wind: 10mph
Humidity: 56%   Direction: 280°W
Pressure: 29.88"   Gusts: 22mph
Location:  40.59°N, 74.46°W
Report Text: KSMQ 172253Z AUTO 28009G19KT 10SM SCT050 08/M01 A2988 RMK AO2 SLP118 T00781006
Loading
Personal Weather Stations






























Interactive Weather Map New forecast layout! Learn more

10-Day Weather Forecast

Advertisements
Track Severe Weather on mobile